createdAt,value
2022-09-27T00:01:17.205Z,1.17
2022-09-27T00:03:45.685Z,1.40
2022-09-27T00:06:16.258Z,1.13
2022-09-27T00:08:44.661Z,1.10
2022-09-27T00:11:26.915Z,1.60
2022-09-27T00:13:57.591Z,1.30
2022-09-27T00:16:26.844Z,1.43
2022-09-27T00:18:55.033Z,1.20
2022-09-27T00:21:23.088Z,1.30
2022-09-27T00:23:51.148Z,1.40
2022-09-27T00:26:19.229Z,1.20
2022-09-27T00:28:47.319Z,1.30
2022-09-27T00:31:22.834Z,1.07
2022-09-27T00:33:53.203Z,1.20
2022-09-27T00:36:22.356Z,1.23
2022-09-27T00:38:50.996Z,1.30
2022-09-27T00:41:21.485Z,1.20
2022-09-27T00:43:51.107Z,1.30
2022-09-27T00:46:40.584Z,1.60
2022-09-27T00:49:14.817Z,1.23
2022-09-27T00:51:45.730Z,1.40
2022-09-27T00:54:16.025Z,1.37
2022-09-27T00:56:45.797Z,1.60
2022-09-27T00:59:18.744Z,1.60
2022-09-27T01:01:50.244Z,1.70
2022-09-27T01:04:24.027Z,1.23
2022-09-27T01:06:52.679Z,1.33
2022-09-27T01:09:21.370Z,2.10
2022-09-27T01:11:55.374Z,1.60
2022-09-27T01:14:38.824Z,1.50
2022-09-27T01:17:19.361Z,1.60
2022-09-27T01:20:27.048Z,1.60
2022-09-27T01:23:10.168Z,1.87
2022-09-27T01:25:53.353Z,1.60
2022-09-27T01:28:28.321Z,1.60
2022-09-27T01:31:04.382Z,1.87
2022-09-27T01:33:45.583Z,1.73
2022-09-27T01:36:22.881Z,1.97
2022-09-27T01:39:11.596Z,1.77
2022-09-27T01:41:46.439Z,1.73
2022-09-27T01:44:22.367Z,1.63
2022-09-27T01:46:55.285Z,1.70
2022-09-27T01:49:29.267Z,1.70
2022-09-27T01:52:01.792Z,1.70
2022-09-27T01:54:36.170Z,1.90
2022-09-27T01:57:05.473Z,1.80
2022-09-27T01:59:38.511Z,1.80
2022-09-27T02:02:12.195Z,2.07
2022-09-27T02:04:43.252Z,1.80
2022-09-27T02:07:16.056Z,1.83
2022-09-27T02:09:50.207Z,2.00
2022-09-27T02:12:23.111Z,1.70
2022-09-27T02:14:54.869Z,1.97
2022-09-27T02:17:32.456Z,2.00
2022-09-27T02:20:09.205Z,1.83
2022-09-27T02:22:40.438Z,2.33
2022-09-27T02:25:15.724Z,1.70
2022-09-27T02:27:53.622Z,2.10
2022-09-27T02:30:21.944Z,1.50
2022-09-27T02:32:51.550Z,1.90
2022-09-27T02:35:23.972Z,1.80
2022-09-27T02:37:52.947Z,1.60
2022-09-27T02:40:21.202Z,1.80
2022-09-27T02:42:49.440Z,1.77
2022-09-27T02:45:20.269Z,1.87
2022-09-27T02:48:04.670Z,2.03
2022-09-27T02:50:45.779Z,2.00
2022-09-27T02:53:23.369Z,1.70
2022-09-27T02:55:59.012Z,1.63
2022-09-27T02:58:39.257Z,1.90
2022-09-27T03:01:13.264Z,1.50
2022-09-27T03:03:51.802Z,2.07
2022-09-27T03:06:23.354Z,1.67
2022-09-27T03:08:51.957Z,2.03
2022-09-27T03:11:20.051Z,1.90
2022-09-27T03:14:07.337Z,1.57
2022-09-27T03:16:36.257Z,1.63
2022-09-27T03:19:05.815Z,2.00
2022-09-27T03:21:33.906Z,2.00
2022-09-27T03:24:02.501Z,2.07
2022-09-27T03:26:30.633Z,1.77
2022-09-27T03:28:58.729Z,1.90
2022-09-27T03:31:26.912Z,1.97
2022-09-27T03:33:55.261Z,1.50
2022-09-27T03:36:24.710Z,1.80
2022-09-27T03:38:52.760Z,1.47
2022-09-27T03:41:20.824Z,2.00
2022-09-27T03:43:49.106Z,1.63
2022-09-27T03:46:17.248Z,1.63
2022-09-27T03:48:45.379Z,1.73
2022-09-27T03:51:13.414Z,1.73
2022-09-27T03:53:42.915Z,1.50
2022-09-27T03:56:11.486Z,1.50
2022-09-27T03:58:39.567Z,1.70
2022-09-27T04:01:07.988Z,1.73
2022-09-27T04:03:36.342Z,1.30
2022-09-27T04:06:04.575Z,1.33
2022-09-27T04:08:32.801Z,1.53
2022-09-27T04:11:03.180Z,1.20
2022-09-27T04:13:31.242Z,1.33
2022-09-27T04:15:59.308Z,1.50
2022-09-27T04:18:27.490Z,1.60
2022-09-27T04:20:55.606Z,1.53
2022-09-27T04:23:29.059Z,1.60
2022-09-27T04:25:58.193Z,1.57
2022-09-27T04:28:28.005Z,1.63
2022-09-27T04:30:56.118Z,1.60
2022-09-27T04:33:24.879Z,1.50
2022-09-27T04:36:10.138Z,1.50
2022-09-27T04:38:38.700Z,1.30
2022-09-27T04:41:07.416Z,1.60
2022-09-27T04:43:36.823Z,1.40
2022-09-27T04:46:05.027Z,1.80
2022-09-27T04:48:33.175Z,1.63
2022-09-27T04:51:03.378Z,1.70
2022-09-27T04:53:31.807Z,1.40
2022-09-27T04:56:01.640Z,1.40
2022-09-27T04:58:30.013Z,1.53
2022-09-27T05:00:59.644Z,1.67
2022-09-27T05:03:28.328Z,1.90
2022-09-27T05:05:56.640Z,1.90
2022-09-27T05:08:25.205Z,1.60
2022-09-27T05:10:53.503Z,2.10
2022-09-27T05:13:21.594Z,1.97
2022-09-27T05:15:49.653Z,2.30
2022-09-27T05:18:19.214Z,2.10
2022-09-27T05:20:47.852Z,2.20
2022-09-27T05:23:15.919Z,2.23
2022-09-27T05:25:44.109Z,2.33
2022-09-27T05:28:12.162Z,2.33
2022-09-27T05:30:40.326Z,2.50
2022-09-27T05:33:08.461Z,2.40
2022-09-27T05:35:43.233Z,2.07
2022-09-27T05:38:13.305Z,2.20
2022-09-27T05:40:42.585Z,2.47
2022-09-27T05:43:11.396Z,2.57
2022-09-27T05:45:39.566Z,2.70
2022-09-27T05:48:09.316Z,2.60
2022-09-27T05:50:38.784Z,2.40
2022-09-27T05:53:07.001Z,2.47
2022-09-27T05:55:35.117Z,2.60
2022-09-27T05:58:04.934Z,2.60
2022-09-27T06:00:33.520Z,2.90
2022-09-27T06:03:03.095Z,4.23
2022-09-27T06:05:39.491Z,2.90
2022-09-27T06:08:09.824Z,3.20
2022-09-27T06:10:38.722Z,3.40
2022-09-27T06:13:08.520Z,2.70
2022-09-27T06:15:39.213Z,3.63
2022-09-27T06:18:10.115Z,3.30
2022-09-27T06:20:41.578Z,3.40
2022-09-27T06:23:12.041Z,3.77
2022-09-27T06:25:41.173Z,3.73
2022-09-27T06:28:09.893Z,3.80
2022-09-27T06:30:40.994Z,4.37
2022-09-27T06:33:10.611Z,4.07
2022-09-27T06:35:40.626Z,3.60
2022-09-27T06:38:11.397Z,3.57
2022-09-27T06:40:39.986Z,3.60
2022-09-27T06:43:10.541Z,3.43
2022-09-27T06:45:39.359Z,3.13
2022-09-27T06:48:10.409Z,3.90
2022-09-27T06:50:41.188Z,3.70
2022-09-27T06:53:11.873Z,3.50
2022-09-27T06:55:40.906Z,3.60
2022-09-27T06:58:28.507Z,3.90
2022-09-27T07:00:56.649Z,3.60
2022-09-27T07:03:30.749Z,3.20
2022-09-27T07:06:03.986Z,4.40
2022-09-27T07:08:32.703Z,3.60
2022-09-27T07:11:05.092Z,3.90
2022-09-27T07:13:34.613Z,4.30
2022-09-27T07:16:03.323Z,4.70
2022-09-27T07:18:31.506Z,4.10
2022-09-27T07:21:02.954Z,4.37
2022-09-27T07:23:31.130Z,4.33
2022-09-27T07:26:04.284Z,4.30
2022-09-27T07:28:32.786Z,4.17
2022-09-27T07:31:02.264Z,4.30
2022-09-27T07:33:31.081Z,4.10
2022-09-27T07:35:59.403Z,4.53
2022-09-27T07:38:29.063Z,4.00
2022-09-27T07:40:57.293Z,4.10
2022-09-27T07:43:25.588Z,4.00
2022-09-27T07:45:57.195Z,4.63
2022-09-27T07:48:25.417Z,3.70
2022-09-27T07:50:54.031Z,6.53
2022-09-27T07:53:24.120Z,4.03
2022-09-27T07:55:54.237Z,4.40
2022-09-27T07:58:22.910Z,4.13
2022-09-27T08:00:51.005Z,3.90
2022-09-27T08:03:19.357Z,3.73
2022-09-27T08:05:48.694Z,3.40
2022-09-27T08:08:17.194Z,3.70
2022-09-27T08:10:47.539Z,3.97
2022-09-27T08:13:20.313Z,4.00
2022-09-27T08:15:50.785Z,3.47
2022-09-27T08:18:19.050Z,3.87
2022-09-27T08:20:47.461Z,3.60
2022-09-27T08:23:15.579Z,3.70
2022-09-27T08:25:44.162Z,3.77
2022-09-27T08:28:12.228Z,4.23
2022-09-27T08:30:41.785Z,3.87
2022-09-27T08:33:10.542Z,3.80
2022-09-27T08:35:38.640Z,3.93
2022-09-27T08:38:06.766Z,4.13
2022-09-27T08:40:50.224Z,3.70
2022-09-27T08:43:28.471Z,4.23
2022-09-27T08:46:06.607Z,4.13
2022-09-27T08:48:37.623Z,4.17
2022-09-27T08:51:08.732Z,3.83
2022-09-27T08:53:42.332Z,4.10
2022-09-27T08:56:12.216Z,4.07
2022-09-27T08:58:46.659Z,4.23
2022-09-27T09:01:18.141Z,4.00
2022-09-27T09:03:49.960Z,4.10
2022-09-27T09:06:23.328Z,4.10
2022-09-27T09:09:02.094Z,4.00
2022-09-27T09:12:01.542Z,3.90
2022-09-27T09:14:58.679Z,4.27
2022-09-27T09:17:45.799Z,3.80
2022-09-27T09:20:40.404Z,4.40
2022-09-27T09:23:41.328Z,3.40
2022-09-27T09:26:18.922Z,3.40
2022-09-27T09:29:06.305Z,2.17
2022-09-27T09:31:43.945Z,1.90
2022-09-27T09:34:20.120Z,1.87
2022-09-27T09:36:52.629Z,1.80
2022-09-27T09:39:25.935Z,1.60
2022-09-27T09:42:13.730Z,1.40
2022-09-27T09:44:49.466Z,1.40
2022-09-27T09:47:29.568Z,1.40
2022-09-27T09:50:02.482Z,1.60
2022-09-27T09:52:43.288Z,1.53
2022-09-27T09:55:20.621Z,1.47
2022-09-27T09:58:00.481Z,1.50
2022-09-27T10:00:28.772Z,1.53
2022-09-27T10:03:00.139Z,1.97
2022-09-27T10:05:30.515Z,1.60
2022-09-27T10:08:02.222Z,2.00
2022-09-27T10:10:30.993Z,2.33
2022-09-27T10:12:59.340Z,2.00
2022-09-27T10:15:30.878Z,2.33
2022-09-27T10:18:01.375Z,2.03
2022-09-27T10:20:35.339Z,1.90
2022-09-27T10:23:12.890Z,2.10
2022-09-27T10:25:50.907Z,2.03
2022-09-27T10:28:37.921Z,1.93
2022-09-27T10:31:08.142Z,2.10
2022-09-27T10:33:38.430Z,2.10
2022-09-27T10:36:25.095Z,2.40
2022-09-27T10:38:54.783Z,2.00
2022-09-27T10:41:27.775Z,2.20
2022-09-27T10:43:55.989Z,2.00
2022-09-27T10:46:28.638Z,2.13
2022-09-27T10:49:19.760Z,1.67
2022-09-27T10:51:54.052Z,1.70
2022-09-27T10:54:53.837Z,2.40
2022-09-27T10:57:24.009Z,1.70
2022-09-27T11:00:01.253Z,1.43
2022-09-27T11:02:32.791Z,1.27
2022-09-27T11:05:35.316Z,1.40
2022-09-27T11:08:27.534Z,1.30
2022-09-27T11:11:04.074Z,1.10
2022-09-27T11:13:34.562Z,1.50
2022-09-27T11:16:28.388Z,1.33
2022-09-27T11:19:22.570Z,1.50
2022-09-27T11:21:59.224Z,1.37
2022-09-27T11:24:41.339Z,0.90
2022-09-27T11:27:22.383Z,0.83
2022-09-27T11:30:05.161Z,0.47
2022-09-27T11:32:48.557Z,0.70
2022-09-27T11:35:38.221Z,0.60
2022-09-27T11:38:40.773Z,0.60
2022-09-27T11:41:23.428Z,0.30
2022-09-27T11:44:12.378Z,0.43
2022-09-27T11:46:42.482Z,0.97
2022-09-27T11:49:29.652Z,0.40
2022-09-27T11:52:10.823Z,0.57
2022-09-27T11:54:50.257Z,0.50
2022-09-27T11:57:26.420Z,0.57
2022-09-27T12:00:19.529Z,0.60
2022-09-27T12:03:07.512Z,0.50
2022-09-27T12:05:43.566Z,0.60
2022-09-27T12:08:30.917Z,0.70
2022-09-27T12:11:04.414Z,0.53
2022-09-27T12:13:39.332Z,0.80
2022-09-27T12:16:08.237Z,0.80
2022-09-27T12:18:39.997Z,0.80
2022-09-27T12:21:10.335Z,0.90
2022-09-27T12:23:42.886Z,0.93
2022-09-27T12:26:18.420Z,1.23
2022-09-27T12:29:07.600Z,1.17
2022-09-27T12:31:42.168Z,1.07
2022-09-27T12:34:20.827Z,0.90
2022-09-27T12:36:54.499Z,1.10
2022-09-27T12:39:26.712Z,0.90
2022-09-27T12:42:02.249Z,0.83
2022-09-27T12:44:45.929Z,0.70
2022-09-27T12:47:28.005Z,0.77
2022-09-27T12:50:12.842Z,0.80
2022-09-27T12:53:05.591Z,1.20
2022-09-27T12:56:06.640Z,0.90
2022-09-27T12:59:18.706Z,0.93
2022-09-27T13:05:43.628Z,1.07
2022-09-27T13:08:28.337Z,1.20
2022-09-27T13:11:02.476Z,1.50
2022-09-27T13:13:36.222Z,1.50
2022-09-27T13:16:05.588Z,1.60
2022-09-27T13:18:53.069Z,1.70
2022-09-27T13:21:54.274Z,1.60
2022-09-27T13:24:44.912Z,1.60
2022-09-27T13:27:37.572Z,1.60
2022-09-27T13:30:48.305Z,1.10
2022-09-27T13:33:33.033Z,1.10
2022-09-27T13:36:20.882Z,1.00
2022-09-27T13:39:06.131Z,1.20
2022-09-27T13:41:56.012Z,1.17
2022-09-27T13:44:33.286Z,1.40
2022-09-27T13:47:05.049Z,1.40
2022-09-27T13:49:37.921Z,1.40
2022-09-27T13:52:20.845Z,1.10
2022-09-27T13:54:53.967Z,1.30
2022-09-27T13:57:50.599Z,1.30
2022-09-27T14:00:21.376Z,1.40
2022-09-27T14:03:10.757Z,1.30
2022-09-27T14:05:43.250Z,1.20
2022-09-27T14:08:21.464Z,0.97
2022-09-27T14:10:49.805Z,1.43
2022-09-27T14:13:21.789Z,1.50
2022-09-27T14:15:51.464Z,1.20
2022-09-27T14:18:19.906Z,1.10
2022-09-27T14:20:52.152Z,1.27
2022-09-27T14:23:23.675Z,1.13
2022-09-27T14:25:53.280Z,1.27
2022-09-27T14:28:25.045Z,1.60
2022-09-27T14:31:13.128Z,0.80
2022-09-27T14:33:41.288Z,0.90
2022-09-27T14:36:39.650Z,0.80
2022-09-27T14:39:15.653Z,0.70
2022-09-27T14:41:44.763Z,0.80
2022-09-27T14:44:18.918Z,0.53
2022-09-27T14:46:47.726Z,0.83
2022-09-27T14:49:21.997Z,0.63
2022-09-27T14:51:53.866Z,0.60
2022-09-27T14:54:25.304Z,0.80
2022-09-27T14:56:54.892Z,0.70
2022-09-27T14:59:30.929Z,0.60
2022-09-27T15:02:01.833Z,0.63
2022-09-27T15:04:32.827Z,0.80
2022-09-27T15:07:03.176Z,0.70
2022-09-27T15:09:33.402Z,0.83
2022-09-27T15:12:04.866Z,0.97
2022-09-27T15:14:37.594Z,1.03
2022-09-27T15:17:06.638Z,1.07
2022-09-27T15:19:35.374Z,1.20
2022-09-27T15:22:31.249Z,1.10
2022-09-27T15:25:20.444Z,1.00
2022-09-27T15:27:50.849Z,0.77
2022-09-27T15:30:29.515Z,0.90
2022-09-27T15:32:58.377Z,1.03
2022-09-27T15:35:30.119Z,0.83
2022-09-27T15:38:29.552Z,0.80
2022-09-27T15:41:16.171Z,1.00
2022-09-27T15:43:47.632Z,1.10
2022-09-27T15:46:38.135Z,1.00
2022-09-27T15:49:34.603Z,0.90
2022-09-27T15:52:05.335Z,0.60
2022-09-27T15:54:35.828Z,0.93
2022-09-27T15:57:06.607Z,0.90
2022-09-27T15:59:36.445Z,0.70
2022-09-27T16:02:14.033Z,0.70
2022-09-27T16:04:42.105Z,0.70
2022-09-27T16:07:11.696Z,0.70
2022-09-27T16:09:40.092Z,1.27
2022-09-27T16:12:08.163Z,0.60
2022-09-27T16:14:36.402Z,2.07
2022-09-27T16:17:07.961Z,1.30
2022-09-27T16:19:35.928Z,1.30
2022-09-27T16:22:05.461Z,1.70
2022-09-27T16:24:33.773Z,1.30
2022-09-27T16:27:01.863Z,0.83
2022-09-27T16:29:29.942Z,0.90
2022-09-27T16:31:58.004Z,1.10
2022-09-27T16:34:28.442Z,1.20
2022-09-27T16:36:56.514Z,0.90
2022-09-27T16:39:24.489Z,1.17
2022-09-27T16:41:53.503Z,0.90
2022-09-27T16:44:21.606Z,0.97
2022-09-27T16:46:50.185Z,1.00
2022-09-27T16:49:35.757Z,0.73
2022-09-27T16:52:05.128Z,0.93
2022-09-27T16:54:33.166Z,0.90
2022-09-27T16:57:01.233Z,1.00
2022-09-27T16:59:29.655Z,1.30
2022-09-27T17:01:58.084Z,1.30
2022-09-27T17:04:27.418Z,1.50
2022-09-27T17:06:55.922Z,2.40
2022-09-27T17:09:26.035Z,2.63
2022-09-27T17:11:55.347Z,5.90
2022-09-27T17:14:23.830Z,3.50
2022-09-27T17:16:52.049Z,2.00
2022-09-27T17:19:20.257Z,2.93
2022-09-27T17:21:48.589Z,1.73
2022-09-27T17:24:16.768Z,2.10
2022-09-27T17:26:46.203Z,2.80
2022-09-27T17:29:15.388Z,2.70
2022-09-27T17:31:43.917Z,2.10
2022-09-27T17:34:14.018Z,1.73
2022-09-27T17:36:48.003Z,1.40
2022-09-27T17:39:17.804Z,2.03
2022-09-27T17:41:47.192Z,1.60
2022-09-27T17:44:18.217Z,1.87
2022-09-27T17:46:47.411Z,2.10
2022-09-27T17:49:33.211Z,2.67
2022-09-27T17:52:01.320Z,2.03
2022-09-27T17:54:29.362Z,2.00
2022-09-27T17:56:58.776Z,2.10
2022-09-27T17:59:26.970Z,2.03
2022-09-27T18:01:55.446Z,2.33
2022-09-27T18:04:23.631Z,2.73
2022-09-27T18:06:51.600Z,2.33
2022-09-27T18:09:19.738Z,2.40
2022-09-27T18:11:48.234Z,3.10
2022-09-27T18:14:17.986Z,2.80
2022-09-27T18:16:46.140Z,2.50
2022-09-27T18:19:16.277Z,1.70
2022-09-27T18:21:44.418Z,1.80
2022-09-27T18:24:14.149Z,1.70
2022-09-27T18:26:42.915Z,1.63
2022-09-27T18:29:16.406Z,1.60
2022-09-27T18:31:48.985Z,1.10
2022-09-27T18:34:18.412Z,1.00
2022-09-27T18:36:47.108Z,1.30
2022-09-27T18:39:18.263Z,1.53
2022-09-27T18:41:48.467Z,1.10
2022-09-27T18:44:17.378Z,1.20
2022-09-27T18:46:46.949Z,1.07
2022-09-27T18:49:16.298Z,1.17
2022-09-27T18:51:46.989Z,1.33
2022-09-27T18:54:17.315Z,1.30
2022-09-27T18:56:45.672Z,1.20
2022-09-27T18:59:13.976Z,1.40
2022-09-27T19:01:45.177Z,1.13
2022-09-27T19:04:20.340Z,1.47
2022-09-27T19:06:49.789Z,1.40
2022-09-27T19:09:18.059Z,1.23
2022-09-27T19:11:46.210Z,1.47
2022-09-27T19:14:17.104Z,1.40
2022-09-27T19:16:47.003Z,1.30
2022-09-27T19:19:17.129Z,1.30
2022-09-27T19:22:49.838Z,1.40
2022-09-27T19:26:10.736Z,1.40
2022-09-27T19:31:43.145Z,1.27
2022-09-27T19:37:41.134Z,1.30
2022-09-27T19:43:27.902Z,1.50
2022-09-27T19:46:21.259Z,1.20
2022-09-27T19:48:51.019Z,1.73
2022-09-27T19:51:20.855Z,1.63
2022-09-27T19:53:50.915Z,1.30
2022-09-27T19:56:19.328Z,1.70
2022-09-27T19:58:47.435Z,1.50
2022-09-27T20:01:19.236Z,1.30
2022-09-27T20:03:48.420Z,1.40
2022-09-27T20:06:17.986Z,1.60
2022-09-27T20:08:47.771Z,1.47
2022-09-27T20:11:18.281Z,1.37
2022-09-27T20:13:46.438Z,1.23
2022-09-27T20:16:16.489Z,1.50
2022-09-27T20:18:46.370Z,1.70
2022-09-27T20:21:15.378Z,1.60
2022-09-27T20:23:44.255Z,1.70
2022-09-27T20:26:14.179Z,1.60
2022-09-27T20:28:44.948Z,1.50
2022-09-27T20:31:14.210Z,1.30
2022-09-27T20:33:42.328Z,1.57
2022-09-27T20:36:12.464Z,1.73
2022-09-27T20:38:40.980Z,1.50
2022-09-27T20:41:09.361Z,1.70
2022-09-27T20:43:37.635Z,1.60
2022-09-27T20:46:08.796Z,1.70
2022-09-27T20:48:37.571Z,1.57
2022-09-27T20:51:06.625Z,1.60
2022-09-27T20:53:35.273Z,1.60
2022-09-27T20:56:03.762Z,1.50
2022-09-27T20:58:33.182Z,1.60
2022-09-27T21:01:08.111Z,1.60
2022-09-27T21:03:36.245Z,1.50
2022-09-27T21:06:05.175Z,1.30
2022-09-27T21:08:34.334Z,1.50
2022-09-27T21:11:06.991Z,1.60
2022-09-27T21:13:35.422Z,1.30
2022-09-27T21:16:04.827Z,1.50
2022-09-27T21:18:34.674Z,1.30
2022-09-27T21:21:04.653Z,1.00
2022-09-27T21:23:33.823Z,1.23
2022-09-27T21:26:03.720Z,1.30
2022-09-27T21:28:36.152Z,1.37
2022-09-27T21:31:06.304Z,1.40
2022-09-27T21:33:36.394Z,1.10
2022-09-27T21:36:05.543Z,1.60
2022-09-27T21:38:34.249Z,1.13
2022-09-27T21:41:04.121Z,1.37
2022-09-27T21:43:33.866Z,1.43
2022-09-27T21:46:07.815Z,1.40
2022-09-27T21:48:38.795Z,1.30
2022-09-27T21:51:08.827Z,1.10
2022-09-27T21:53:38.275Z,1.40
2022-09-27T21:56:07.498Z,1.10
2022-09-27T21:58:36.142Z,1.10
2022-09-27T22:01:09.136Z,1.03
2022-09-27T22:03:39.799Z,1.20
2022-09-27T22:06:10.674Z,1.20
2022-09-27T22:08:39.358Z,1.20
2022-09-27T22:11:07.926Z,1.50
2022-09-27T22:13:36.393Z,1.20
2022-09-27T22:16:05.642Z,1.40
2022-09-27T22:18:37.360Z,1.33
2022-09-27T22:21:08.749Z,0.90
2022-09-27T22:23:37.385Z,1.40
2022-09-27T22:26:13.226Z,1.23
2022-09-27T22:28:41.327Z,1.23
2022-09-27T22:31:10.919Z,1.10
2022-09-27T22:33:39.007Z,1.37
2022-09-27T22:36:08.787Z,1.63
2022-09-27T22:38:36.801Z,1.30
2022-09-27T22:41:05.101Z,1.40
2022-09-27T22:43:33.435Z,1.53
2022-09-27T22:46:01.901Z,1.30
2022-09-27T22:48:30.710Z,1.20
2022-09-27T22:50:59.698Z,1.20
2022-09-27T22:53:30.472Z,1.27
2022-09-27T22:56:03.818Z,1.10
2022-09-27T22:58:32.993Z,1.30
2022-09-27T23:01:01.246Z,1.80
2022-09-27T23:03:29.474Z,1.20
2022-09-27T23:06:03.045Z,1.43
2022-09-27T23:08:35.216Z,1.20
2022-09-27T23:11:04.834Z,1.80
2022-09-27T23:13:34.172Z,1.30
2022-09-27T23:16:03.382Z,1.07
2022-09-27T23:18:32.012Z,1.70
2022-09-27T23:21:03.079Z,1.33
2022-09-27T23:23:32.978Z,1.00
2022-09-27T23:26:02.560Z,1.30
2022-09-27T23:28:31.496Z,1.20
2022-09-27T23:31:08.024Z,1.20
2022-09-27T23:33:36.611Z,1.20
2022-09-27T23:36:05.023Z,1.30
2022-09-27T23:38:34.533Z,1.30
2022-09-27T23:41:02.652Z,1.10
2022-09-27T23:43:30.828Z,1.00
2022-09-27T23:45:58.871Z,1.37
2022-09-27T23:48:27.744Z,1.30
2022-09-27T23:50:56.762Z,1.27
2022-09-27T23:53:25.192Z,1.47
2022-09-27T23:56:02.884Z,1.70
2022-09-27T23:58:33.083Z,1.20
